Time;durP1;ratioP1;P1;durP2;ratioP2;P2;SDS_P1;SDS_P2;PMS_P1;PMS_P2;Temp;Humidity;BMP_temperature;BMP_pressure;BME280_temperature;BME280_humidity;BME280_pressure;Samples;Min_cycle;Max_cycle;Signal;HPM_P1;HPM_P2
2021/01/07 00:01:14;;;;;;;7.87;7.07;;;4.60;99.90;;;;;;5015920;28;20195;-59
2021/01/07 00:03:39;;;;;;;6.90;6.13;;;4.50;99.90;;;;;;5016551;28;20164;-61
2021/01/07 00:06:12;;;;;;;6.80;6.20;;;4.20;99.90;;;;;;5015859;28;20403;-58
2021/01/07 00:08:38;;;;;;;7.03;6.33;;;4.40;99.90;;;;;;5015701;28;20325;-60
2021/01/07 00:11:09;;;;;;;7.07;6.37;;;4.40;99.90;;;;;;5015754;28;20445;-58
2021/01/07 00:13:35;;;;;;;7.73;7.00;;;4.50;99.90;;;;;;5015556;28;20411;-59
2021/01/07 00:16:03;;;;;;;6.90;6.23;;;4.40;99.90;;;;;;5015770;28;20460;-58
2021/01/07 00:18:28;;;;;;;6.50;5.90;;;4.60;99.90;;;;;;5015495;28;20771;-57
2021/01/07 00:20:54;;;;;;;7.33;6.73;;;4.60;99.90;;;;;;4997916;28;20513;-57
2021/01/07 00:23:20;;;;;;;7.03;6.43;;;4.60;99.90;;;;;;5015328;28;20649;-58
2021/01/07 00:25:48;;;;;;;6.13;5.63;;;4.70;99.90;;;;;;5015386;28;20180;-59
2021/01/07 00:28:15;;;;;;;6.60;6.00;;;4.70;99.90;;;;;;5015174;28;20537;-56
2021/01/07 00:30:41;;;;;;;7.77;6.97;;;4.70;99.90;;;;;;5014865;28;20430;-60
2021/01/07 00:33:07;;;;;;;6.50;5.80;;;4.70;99.90;;;;;;5015856;28;20408;-58
2021/01/07 00:35:33;;;;;;;7.77;7.00;;;4.60;99.90;;;;;;5015257;28;20404;-58
2021/01/07 00:37:58;;;;;;;7.23;6.53;;;4.50;99.90;;;;;;5014919;28;20498;-58
2021/01/07 00:40:24;;;;;;;7.70;6.63;;;4.60;99.90;;;;;;5015408;28;20263;-58
2021/01/07 00:42:50;;;;;;;6.87;6.27;;;4.60;99.90;;;;;;5015294;28;20226;-57
2021/01/07 00:45:17;;;;;;;6.70;6.00;;;4.60;99.90;;;;;;5015485;28;20588;-56
2021/01/07 00:47:44;;;;;;;7.30;6.60;;;4.60;99.90;;;;;;5015277;28;20542;-58
2021/01/07 00:50:10;;;;;;;7.00;6.27;;;4.60;99.90;;;;;;5014787;28;20600;-57
2021/01/07 00:52:35;;;;;;;8.33;7.53;;;4.70;99.90;;;;;;5015505;28;20494;-59
2021/01/07 00:55:01;;;;;;;7.40;6.70;;;4.70;99.90;;;;;;5014983;28;20407;-57
2021/01/07 00:57:27;;;;;;;7.40;6.70;;;4.60;99.90;;;;;;5014858;28;20160;-57
2021/01/07 00:59:53;;;;;;;7.83;7.13;;;4.70;99.90;;;;;;5014354;28;20272;-57
2021/01/07 01:02:18;;;;;;;7.80;7.00;;;4.70;99.90;;;;;;5014980;28;20553;-55
2021/01/07 01:04:44;;;;;;;8.70;7.80;;;4.60;99.90;;;;;;5014608;28;20251;-58
2021/01/07 01:07:10;;;;;;;7.90;7.13;;;4.70;99.90;;;;;;5014248;28;20179;-58
2021/01/07 01:09:35;;;;;;;7.87;7.10;;;4.60;99.90;;;;;;5013981;28;20204;-59
2021/01/07 01:12:01;;;;;;;7.50;6.90;;;4.60;99.90;;;;;;5016915;28;20160;-58
2021/01/07 01:14:26;;;;;;;7.30;6.60;;;4.60;99.90;;;;;;5014207;28;20171;-59
2021/01/07 01:16:54;;;;;;;9.63;8.27;;;4.60;99.90;;;;;;5014267;28;20536;-59
2021/01/07 01:19:19;;;;;;;8.43;7.63;;;4.50;99.90;;;;;;5014266;28;20207;-59
2021/01/07 01:21:49;;;;;;;10.03;8.23;;;4.50;99.90;;;;;;5014225;28;20833;-59
2021/01/07 01:24:15;;;;;;;8.00;7.30;;;4.50;99.90;;;;;;5014446;28;20259;-59
2021/01/07 01:26:41;;;;;;;8.83;7.93;;;4.50;99.90;;;;;;5013258;28;20451;-59
2021/01/07 01:29:06;;;;;;;10.93;8.60;;;4.60;99.90;;;;;;5013362;28;20287;-59
2021/01/07 01:31:37;;;;;;;8.70;7.80;;;4.60;99.90;;;;;;5013798;28;20168;-58
2021/01/07 01:34:03;;;;;;;9.80;7.87;;;4.60;99.90;;;;;;5014068;28;20159;-59
2021/01/07 01:36:28;;;;;;;8.30;7.57;;;4.60;99.90;;;;;;5013643;28;20407;-59
2021/01/07 01:38:54;;;;;;;8.00;7.20;;;4.60;99.90;;;;;;5013866;28;20202;-59
2021/01/07 01:41:21;;;;;;;8.37;7.57;;;4.60;99.90;;;;;;5013867;28;20176;-59
2021/01/07 01:43:46;;;;;;;9.40;8.50;;;4.60;99.90;;;;;;5014111;28;20411;-57
2021/01/07 01:46:12;;;;;;;8.30;7.23;;;4.70;99.90;;;;;;5013903;28;20411;-58
2021/01/07 01:48:40;;;;;;;9.43;8.53;;;4.70;99.90;;;;;;5013776;28;20570;-57
2021/01/07 01:51:07;;;;;;;9.43;8.03;;;4.60;99.90;;;;;;5013850;28;20172;-59
2021/01/07 01:53:33;;;;;;;7.73;7.03;;;4.60;99.90;;;;;;5000222;28;20424;-57
2021/01/07 01:56:00;;;;;;;9.80;8.20;;;4.60;99.90;;;;;;5033158;28;21005;-59
2021/01/07 01:58:25;;;;;;;7.83;7.03;;;4.70;99.90;;;;;;5033476;28;20449;-59
2021/01/07 02:00:51;;;;;;;8.73;7.93;;;4.70;99.90;;;;;;5033149;28;20553;-55
2021/01/07 02:03:17;;;;;;;8.40;7.60;;;4.80;99.90;;;;;;5033497;28;20171;-57
2021/01/07 02:05:42;;;;;;;9.03;8.13;;;4.70;99.90;;;;;;5033424;28;20174;-59
2021/01/07 02:08:09;;;;;;;8.27;6.77;;;4.60;99.90;;;;;;5033140;28;20234;-57
2021/01/07 02:10:35;;;;;;;8.50;7.70;;;4.50;99.90;;;;;;5034411;28;20202;-57
2021/01/07 02:13:06;;;;;;;8.53;7.63;;;4.50;99.90;;;;;;5037533;28;20489;-57
2021/01/07 02:15:39;;;;;;;8.50;7.57;;;4.40;99.90;;;;;;5037716;28;20406;-58
2021/01/07 02:18:05;;;;;;;7.97;7.17;;;4.50;99.90;;;;;;5037884;28;20421;-57
2021/01/07 02:20:32;;;;;;;7.87;7.17;;;4.40;99.90;;;;;;5037392;28;20789;-60
2021/01/07 02:22:58;;;;;;;8.83;7.93;;;4.40;99.90;;;;;;5037789;28;20174;-57
2021/01/07 02:25:23;;;;;;;8.70;7.90;;;4.40;99.90;;;;;;5037996;28;20401;-57
2021/01/07 02:27:50;;;;;;;8.47;7.53;;;4.40;99.90;;;;;;5037652;28;20222;-58
2021/01/07 02:30:16;;;;;;;9.30;8.03;;;4.50;99.90;;;;;;5037169;28;20199;-60
2021/01/07 02:32:42;;;;;;;8.40;7.53;;;4.50;99.90;;;;;;5037416;28;20394;-60
2021/01/07 02:35:09;;;;;;;9.00;8.03;;;4.30;99.90;;;;;;5037068;28;20410;-59
2021/01/07 02:37:35;;;;;;;8.00;7.17;;;4.30;99.90;;;;;;5037069;28;20409;-59
2021/01/07 02:40:03;;;;;;;9.73;7.83;;;4.30;99.90;;;;;;5036595;28;20421;-60
2021/01/07 02:42:28;;;;;;;7.10;6.40;;;4.20;99.90;;;;;;5036691;28;20413;-60
2021/01/07 02:44:54;;;;;;;7.57;6.27;;;4.20;99.90;;;;;;5036501;28;20812;-60
2021/01/07 02:47:19;;;;;;;9.63;6.87;;;4.20;99.90;;;;;;5036487;28;20218;-58
2021/01/07 02:49:45;;;;;;;8.50;7.70;;;4.10;99.90;;;;;;5036233;28;20202;-57
2021/01/07 02:52:11;;;;;;;7.80;6.90;;;4.10;99.90;;;;;;5036719;28;20168;-58
2021/01/07 02:54:36;;;;;;;8.33;7.50;;;4.20;99.90;;;;;;5036857;28;20168;-60
2021/01/07 02:57:02;;;;;;;8.57;7.77;;;4.20;99.90;;;;;;5036471;28;20542;-60
2021/01/07 02:59:29;;;;;;;8.13;7.30;;;4.20;99.90;;;;;;5036232;28;20723;-59
2021/01/07 03:01:55;;;;;;;8.83;7.97;;;4.20;99.90;;;;;;5036568;28;20410;-59
2021/01/07 03:04:20;;;;;;;10.40;7.33;;;4.20;99.90;;;;;;5023777;28;20414;-60
2021/01/07 03:06:46;;;;;;;8.17;7.37;;;4.20;99.90;;;;;;5016849;28;20545;-60
2021/01/07 03:09:12;;;;;;;9.43;8.53;;;4.10;99.90;;;;;;5016623;28;20208;-59
2021/01/07 03:11:38;;;;;;;7.20;6.57;;;4.10;99.90;;;;;;5016659;28;20172;-59
2021/01/07 03:14:04;;;;;;;7.80;6.77;;;4.10;99.90;;;;;;5016579;28;20746;-57
2021/01/07 03:16:29;;;;;;;7.40;6.70;;;4.20;99.90;;;;;;5016194;28;20508;-59
2021/01/07 03:18:55;;;;;;;5.90;5.30;;;4.30;99.90;;;;;;5016788;28;20278;-58
2021/01/07 03:21:20;;;;;;;7.93;7.13;;;4.20;99.90;;;;;;5017057;28;20168;-53
2021/01/07 03:23:46;;;;;;;5.77;5.27;;;4.20;99.90;;;;;;5016102;28;20168;-58
2021/01/07 03:26:12;;;;;;;7.07;6.37;;;4.30;99.90;;;;;;5016313;28;20324;-58
2021/01/07 03:28:37;;;;;;;7.30;6.57;;;4.30;99.90;;;;;;5016189;28;20191;-58
2021/01/07 03:31:03;;;;;;;6.40;5.50;;;4.30;99.90;;;;;;5016477;28;20168;-55
2021/01/07 03:33:29;;;;;;;6.73;6.03;;;4.20;99.90;;;;;;5016467;28;20609;-56
2021/01/07 03:35:54;;;;;;;5.43;4.97;;;4.20;99.90;;;;;;5015886;28;20164;-58
2021/01/07 03:38:20;;;;;;;5.60;5.10;;;4.20;99.90;;;;;;5015853;28;20172;-58
2021/01/07 03:40:45;;;;;;;6.07;5.47;;;4.20;99.90;;;;;;5015743;28;20200;-57
2021/01/07 03:43:11;;;;;;;5.70;5.30;;;4.10;99.90;;;;;;5015817;28;20227;-58
2021/01/07 03:45:36;;;;;;;5.87;5.33;;;4.20;99.90;;;;;;5015777;28;20234;-57
2021/01/07 03:48:02;;;;;;;5.50;5.00;;;4.20;99.90;;;;;;5015720;28;20172;-57
2021/01/07 03:50:27;;;;;;;6.63;5.70;;;4.10;99.90;;;;;;5016518;28;20290;-60
2021/01/07 03:52:53;;;;;;;5.10;4.60;;;4.00;99.90;;;;;;5016286;28;20637;-58
2021/01/07 03:55:19;;;;;;;5.60;5.10;;;4.10;99.90;;;;;;5016329;28;20172;-57
2021/01/07 03:57:44;;;;;;;5.13;4.63;;;4.10;99.90;;;;;;5016339;28;20540;-59
2021/01/07 04:00:10;;;;;;;6.73;5.17;;;4.10;99.90;;;;;;5015296;28;20553;-59
2021/01/07 04:02:36;;;;;;;5.53;5.03;;;4.10;99.90;;;;;;5015533;28;20199;-58
2021/01/07 04:05:02;;;;;;;6.07;5.47;;;4.20;99.90;;;;;;5015882;28;20407;-59
2021/01/07 04:07:28;;;;;;;5.20;4.70;;;4.00;99.90;;;;;;5015239;28;20222;-59
2021/01/07 04:09:53;;;;;;;5.57;5.07;;;4.00;99.90;;;;;;5015375;28;20450;-59
2021/01/07 04:12:19;;;;;;;4.87;4.37;;;3.90;99.90;;;;;;5015267;28;20585;-58
2021/01/07 04:14:44;;;;;;;6.30;5.70;;;3.80;99.90;;;;;;5015270;28;20196;-55
2021/01/07 04:17:10;;;;;;;5.70;5.20;;;3.90;99.90;;;;;;5015347;28;20175;-58
2021/01/07 04:19:35;;;;;;;6.07;5.47;;;3.80;99.90;;;;;;5014093;28;20192;-59
2021/01/07 04:22:01;;;;;;;5.80;5.17;;;3.80;99.90;;;;;;5014569;28;20542;-57
2021/01/07 04:24:27;;;;;;;5.23;4.83;;;3.90;99.90;;;;;;5015576;28;20179;-58
2021/01/07 04:26:52;;;;;;;6.00;5.40;;;3.90;99.90;;;;;;5015770;28;20575;-58
2021/01/07 04:29:18;;;;;;;5.50;5.00;;;3.90;99.90;;;;;;5015473;28;20489;-57
2021/01/07 04:31:44;;;;;;;5.60;5.00;;;4.00;99.90;;;;;;5015984;28;20164;-58
2021/01/07 04:34:09;;;;;;;7.43;6.13;;;3.90;99.90;;;;;;5014658;28;20172;-59
2021/01/07 04:36:35;;;;;;;6.87;6.20;;;3.90;99.90;;;;;;5015132;28;20164;-57
2021/01/07 04:39:00;;;;;;;5.87;5.37;;;3.90;99.90;;;;;;5014859;28;20194;-58
2021/01/07 04:41:26;;;;;;;6.10;5.50;;;4.00;99.90;;;;;;5015227;28;20176;-58
2021/01/07 04:43:59;;;;;;;6.10;5.50;;;4.10;99.90;;;;;;5014738;28;20255;-58
2021/01/07 04:46:25;;;;;;;7.13;6.40;;;4.20;99.90;;;;;;5020150;28;20207;-55
2021/01/07 04:48:51;;;;;;;6.10;5.47;;;4.30;99.90;;;;;;5014821;28;20490;-57
2021/01/07 04:51:17;;;;;;;6.40;5.33;;;4.30;99.90;;;;;;5014470;28;20904;-58
2021/01/07 04:53:43;;;;;;;6.73;6.13;;;4.30;99.90;;;;;;5014436;28;20458;-58
2021/01/07 04:56:10;;;;;;;6.07;5.47;;;4.20;99.90;;;;;;5014394;28;20176;-57
2021/01/07 04:58:36;;;;;;;5.53;5.03;;;4.20;99.90;;;;;;5014522;28;20404;-56
2021/01/07 05:01:01;;;;;;;7.67;6.87;;;4.30;99.90;;;;;;5031392;28;20417;-58
2021/01/07 05:03:31;;;;;;;6.00;5.40;;;4.30;99.90;;;;;;5034485;28;20182;-57
2021/01/07 05:05:57;;;;;;;7.30;6.60;;;4.30;99.90;;;;;;5034173;28;20259;-58
2021/01/07 05:08:22;;;;;;;6.43;5.83;;;4.20;99.90;;;;;;5034052;28;20970;-58
2021/01/07 05:10:50;;;;;;;7.57;6.20;;;4.20;99.90;;;;;;5034614;28;20426;-57
2021/01/07 05:13:17;;;;;;;7.27;6.20;;;4.20;99.90;;;;;;5034099;28;20175;-57
2021/01/07 05:15:43;;;;;;;7.63;6.20;;;4.20;99.90;;;;;;5034811;28;20402;-57
2021/01/07 05:18:09;;;;;;;7.43;6.70;;;4.20;99.90;;;;;;5033921;28;20464;-57
2021/01/07 05:20:35;;;;;;;7.87;7.07;;;4.20;99.90;;;;;;5033820;28;20194;-57
2021/01/07 05:23:02;;;;;;;7.80;7.00;;;4.30;99.90;;;;;;5033955;28;20413;-57
2021/01/07 05:25:31;;;;;;;7.00;6.30;;;4.20;99.90;;;;;;5033796;28;20225;-58
2021/01/07 05:28:01;;;;;;;8.33;7.57;;;4.20;99.90;;;;;;5033944;28;20430;-58
2021/01/07 05:30:28;;;;;;;9.40;8.50;;;4.20;99.90;;;;;;5033705;28;20472;-58
2021/01/07 05:33:00;;;;;;;8.20;6.80;;;4.30;99.90;;;;;;5034051;28;20485;-56
2021/01/07 05:35:26;;;;;;;10.00;8.37;;;4.30;99.90;;;;;;5033765;28;20379;-58
2021/01/07 05:37:52;;;;;;;8.13;7.30;;;4.10;99.90;;;;;;5033764;28;20493;-57
2021/01/07 05:40:17;;;;;;;9.00;7.63;;;4.20;99.90;;;;;;5033469;28;20187;-55
2021/01/07 05:42:44;;;;;;;9.70;8.23;;;4.30;99.90;;;;;;5033718;28;20412;-57
2021/01/07 05:45:13;;;;;;;9.67;8.67;;;4.30;99.90;;;;;;5033660;28;20167;-58
2021/01/07 05:47:40;;;;;;;9.97;8.90;;;4.30;99.90;;;;;;5034097;28;20459;-58
2021/01/07 05:50:07;;;;;;;9.33;8.37;;;4.10;99.90;;;;;;5033099;28;20462;-58
2021/01/07 05:52:33;;;;;;;9.57;8.57;;;4.10;99.90;;;;;;5033655;28;20398;-58
2021/01/07 05:55:00;;;;;;;10.40;8.20;;;4.10;99.90;;;;;;5033665;28;20398;-57
2021/01/07 05:57:28;;;;;;;9.60;8.60;;;4.20;99.90;;;;;;5033527;28;20405;-57
2021/01/07 05:59:57;;;;;;;10.27;9.20;;;4.20;99.90;;;;;;5033187;28;20952;-57
2021/01/07 06:02:23;;;;;;;9.80;8.80;;;4.10;99.90;;;;;;5033842;28;20422;-59
2021/01/07 06:04:51;;;;;;;10.80;9.60;;;4.10;99.90;;;;;;5033270;28;20406;-58
2021/01/07 06:07:18;;;;;;;11.93;10.67;;;4.10;99.90;;;;;;5033262;28;20402;-59
2021/01/07 06:09:48;;;;;;;8.60;7.80;;;4.10;99.90;;;;;;5033321;28;20457;-59
2021/01/07 06:12:14;;;;;;;11.63;10.23;;;4.20;99.90;;;;;;5033036;28;21006;-59
2021/01/07 06:14:44;;;;;;;11.07;9.27;;;4.10;99.90;;;;;;5033158;28;20406;-59
2021/01/07 06:17:11;;;;;;;11.17;9.97;;;4.20;99.90;;;;;;5033351;28;20413;-57
2021/01/07 06:19:41;;;;;;;10.43;9.00;;;4.20;99.90;;;;;;5033246;28;20524;-59
2021/01/07 06:22:09;;;;;;;11.70;10.13;;;4.20;99.90;;;;;;5015409;28;20819;-59
2021/01/07 06:24:37;;;;;;;9.77;8.77;;;4.10;99.90;;;;;;5033069;28;20415;-56
2021/01/07 06:27:31;;;;;;;10.43;9.33;;;4.10;99.90;;;;;;5033208;28;20504;-57
2021/01/07 06:30:06;;;;;;;10.43;9.33;;;4.00;99.90;;;;;;5033250;28;20477;-59
2021/01/07 06:32:33;;;;;;;11.07;9.90;;;4.00;99.90;;;;;;5033157;28;20472;-58
2021/01/07 06:34:59;;;;;;;10.17;9.00;;;4.00;99.90;;;;;;5033210;28;20456;-57
2021/01/07 06:37:42;;;;;;;11.80;10.57;;;3.90;99.90;;;;;;5032972;28;20425;-57
2021/01/07 06:40:11;;;;;;;11.40;10.00;;;4.00;99.90;;;;;;5033141;28;20521;-59
2021/01/07 06:42:39;;;;;;;12.17;10.10;;;4.00;99.90;;;;;;5032926;28;20505;-57
2021/01/07 06:45:06;;;;;;;12.40;10.27;;;4.10;99.90;;;;;;5032922;28;20410;-58
2021/01/07 06:47:33;;;;;;;14.37;10.97;;;4.10;99.90;;;;;;5033048;28;20410;-59
2021/01/07 06:50:03;;;;;;;14.57;12.20;;;4.10;99.90;;;;;;5032624;28;20465;-59
2021/01/07 06:52:39;;;;;;;15.13;11.80;;;4.10;99.90;;;;;;5032812;28;20410;-57
2021/01/07 06:55:09;;;;;;;14.17;11.23;;;4.20;99.90;;;;;;5029869;28;20917;-57
2021/01/07 06:57:56;;;;;;;11.50;10.40;;;4.20;99.90;;;;;;5035507;28;20452;-58
2021/01/07 07:00:24;;;;;;;12.10;10.90;;;4.30;99.90;;;;;;5036803;28;20428;-58
2021/01/07 07:02:57;;;;;;;15.97;11.90;;;4.20;99.90;;;;;;5036559;28;20770;-58
2021/01/07 07:05:25;;;;;;;11.90;10.00;;;4.10;99.90;;;;;;5036659;28;20757;-60
2021/01/07 07:08:12;;;;;;;14.23;12.30;;;4.20;99.90;;;;;;5036787;28;20772;-58
2021/01/07 07:10:37;;;;;;;13.87;11.90;;;4.20;99.90;;;;;;5036492;28;20506;-57
2021/01/07 07:13:17;;;;;;;15.80;13.83;;;4.30;99.90;;;;;;5015930;28;20447;-58
2021/01/07 07:15:44;;;;;;;15.07;12.00;;;4.40;99.90;;;;;;5016599;28;20160;-62
2021/01/07 07:18:09;;;;;;;15.10;11.83;;;4.40;99.90;;;;;;5016387;28;20400;-59
2021/01/07 07:20:39;;;;;;;16.13;12.87;;;4.40;99.90;;;;;;5016381;28;20415;-58
2021/01/07 07:23:24;;;;;;;13.77;11.80;;;4.30;99.90;;;;;;5016151;28;20184;-59
2021/01/07 07:25:54;;;;;;;13.57;11.10;;;4.30;99.90;;;;;;5015754;28;20399;-62
2021/01/07 07:28:24;;;;;;;13.80;11.67;;;4.20;99.90;;;;;;5016276;28;20458;-60
2021/01/07 07:30:50;;;;;;;14.47;13.00;;;4.20;99.90;;;;;;5016012;28;20986;-60
2021/01/07 07:33:45;;;;;;;14.00;11.47;;;4.20;99.90;;;;;;5016031;28;20502;-59
2021/01/07 07:36:11;;;;;;;14.83;10.77;;;4.10;99.90;;;;;;5004184;28;20470;-59
2021/01/07 07:38:41;;;;;;;15.20;12.00;;;3.90;99.90;;;;;;5020828;28;20443;-59
2021/01/07 07:41:11;;;;;;;12.80;11.03;;;3.80;99.90;;;;;;5031072;28;20187;-60
2021/01/07 07:43:38;;;;;;;14.37;10.77;;;3.90;99.90;;;;;;5016076;28;20907;-59
2021/01/07 07:46:06;;;;;;;13.47;11.90;;;4.00;99.90;;;;;;5015676;28;20462;-60
2021/01/07 07:48:33;;;;;;;18.87;14.40;;;4.00;99.90;;;;;;5015504;28;20462;-58
2021/01/07 07:51:10;;;;;;;14.47;11.80;;;3.90;99.90;;;;;;5015884;28;20423;-60
2021/01/07 07:53:37;;;;;;;13.50;11.40;;;4.00;99.90;;;;;;5015673;28;20418;-60
2021/01/07 07:56:04;;;;;;;12.90;11.50;;;4.00;99.90;;;;;;5015776;28;20429;-55
2021/01/07 07:58:30;;;;;;;13.07;10.40;;;4.00;99.90;;;;;;5015862;28;20411;-57
2021/01/07 08:00:59;;;;;;;13.87;11.60;;;4.00;99.90;;;;;;5015942;28;20970;-58
2021/01/07 08:03:27;;;;;;;14.53;11.87;;;4.10;99.90;;;;;;5015721;28;20179;-60
2021/01/07 08:05:54;;;;;;;15.63;12.23;;;4.10;99.90;;;;;;5015843;28;20399;-59
2021/01/07 08:08:27;;;;;;;14.87;13.03;;;4.20;99.90;;;;;;5014591;28;20429;-59
2021/01/07 08:10:55;;;;;;;14.73;12.10;;;4.20;99.90;;;;;;5015532;28;20415;-60
2021/01/07 08:13:25;;;;;;;15.87;12.30;;;4.20;99.90;;;;;;5015106;28;20960;-58
2021/01/07 08:15:55;;;;;;;15.27;12.43;;;4.20;99.90;;;;;;5015408;28;20963;-59
2021/01/07 08:18:23;;;;;;;12.13;10.77;;;4.20;99.90;;;;;;5015715;28;20434;-59
2021/01/07 08:20:51;;;;;;;12.50;10.63;;;4.30;99.90;;;;;;5015128;28;20913;-59
2021/01/07 08:23:17;;;;;;;14.93;12.50;;;4.40;99.90;;;;;;5015000;28;20415;-58
2021/01/07 08:25:51;;;;;;;15.53;11.87;;;4.50;99.90;;;;;;5015171;28;20430;-58
2021/01/07 08:28:24;;;;;;;13.10;11.70;;;4.40;99.90;;;;;;5014598;28;20498;-60
2021/01/07 08:30:54;;;;;;;14.23;12.07;;;4.30;99.90;;;;;;5015065;28;20427;-60
2021/01/07 08:33:22;;;;;;;16.07;13.47;;;4.30;99.90;;;;;;5016149;28;20436;-57
2021/01/07 08:35:49;;;;;;;13.80;11.37;;;4.50;99.90;;;;;;5019388;28;20449;-59
2021/01/07 08:38:29;;;;;;;13.77;11.17;;;4.60;99.90;;;;;;5018870;28;20442;-57
2021/01/07 08:41:15;;;;;;;13.67;11.77;;;4.60;99.90;;;;;;5018849;28;20451;-58
2021/01/07 08:43:42;;;;;;;13.83;11.47;;;4.60;99.90;;;;;;5019212;28;20410;-58
2021/01/07 08:46:18;;;;;;;12.57;11.27;;;4.70;99.90;;;;;;5021075;28;20481;-59
2021/01/07 08:48:55;;;;;;;16.27;11.30;;;4.50;99.90;;;;;;5021473;28;20462;-57
2021/01/07 08:51:22;;;;;;;13.20;11.13;;;4.50;99.90;;;;;;5021393;28;20827;-57
2021/01/07 08:53:55;;;;;;;11.67;9.77;;;4.60;99.90;;;;;;5020851;28;20407;-57
2021/01/07 08:56:35;;;;;;;13.73;11.13;;;4.80;99.90;;;;;;5019556;28;20406;-58
2021/01/07 08:59:31;;;;;;;11.63;10.40;;;4.80;99.90;;;;;;5019719;28;21014;-58
2021/01/07 09:02:06;;;;;;;11.73;10.52;;;4.80;99.90;;;;;;5017580;28;20414;-58
2021/01/07 09:04:33;;;;;;;11.97;10.70;;;4.80;99.90;;;;;;5021806;28;20267;-57
2021/01/07 09:07:01;;;;;;;12.90;9.40;;;4.90;99.90;;;;;;5019850;28;20415;-56
2021/01/07 09:09:37;;;;;;;11.30;9.67;;;4.90;99.90;;;;;;5018311;28;20467;-59
2021/01/07 09:12:13;;;;;;;10.60;8.90;;;4.70;99.90;;;;;;5019604;28;20419;-58
2021/01/07 09:14:57;;;;;;;9.43;8.43;;;4.50;99.90;;;;;;5018221;28;20772;-58
2021/01/07 09:17:38;;;;;;;10.20;9.13;;;4.80;99.90;;;;;;5018803;28;20532;-59
2021/01/07 09:20:12;;;;;;;10.40;9.10;;;4.90;99.90;;;;;;5017516;28;20438;-58
2021/01/07 09:22:38;;;;;;;10.40;8.80;;;4.70;99.90;;;;;;5019193;28;20783;-58
2021/01/07 09:25:05;;;;;;;10.47;9.40;;;4.80;99.90;;;;;;5018048;28;20415;-58
2021/01/07 09:27:30;;;;;;;9.47;8.27;;;4.60;99.90;;;;;;5017366;28;20415;-57
2021/01/07 09:29:57;;;;;;;10.53;9.33;;;4.70;99.90;;;;;;5017587;28;20454;-58
2021/01/07 09:32:23;;;;;;;9.93;8.70;;;4.80;99.90;;;;;;5019050;28;20218;-59
2021/01/07 09:34:48;;;;;;;10.17;8.90;;;5.10;99.90;;;;;;5019557;28;20469;-57
2021/01/07 09:37:17;;;;;;;11.80;8.53;;;5.30;99.90;;;;;;5017705;28;20787;-59
2021/01/07 09:39:44;;;;;;;9.67;8.20;;;5.40;99.90;;;;;;5018901;28;20199;-57
2021/01/07 09:42:11;;;;;;;10.63;9.50;;;5.10;99.90;;;;;;5019643;28;20476;-58
2021/01/07 09:44:37;;;;;;;11.57;9.40;;;5.20;99.90;;;;;;5018079;28;20826;-57
2021/01/07 09:47:04;;;;;;;11.57;10.37;;;5.10;99.90;;;;;;5018014;28;20411;-57
2021/01/07 09:49:31;;;;;;;9.43;8.43;;;5.00;99.90;;;;;;5017473;28;20530;-57
2021/01/07 09:51:57;;;;;;;8.63;7.73;;;5.10;99.90;;;;;;5017532;28;20399;-58
2021/01/07 09:54:23;;;;;;;11.23;8.80;;;5.30;99.90;;;;;;5017675;28;20902;-58
2021/01/07 09:56:54;;;;;;;11.33;9.47;;;5.40;99.90;;;;;;5017679;28;20808;-58
2021/01/07 09:59:21;;;;;;;11.67;10.47;;;5.40;99.90;;;;;;5017650;28;20458;-59
2021/01/07 10:01:47;;;;;;;10.83;8.43;;;5.60;99.90;;;;;;5018077;28;20422;-59
2021/01/07 10:04:14;;;;;;;11.40;9.17;;;5.60;99.90;;;;;;5017934;28;20522;-58
2021/01/07 10:06:40;;;;;;;12.57;9.70;;;5.50;99.90;;;;;;5018106;28;20427;-58
2021/01/07 10:09:06;;;;;;;10.07;8.43;;;5.60;99.90;;;;;;5018441;28;20466;-58
2021/01/07 10:11:32;;;;;;;10.30;9.20;;;5.50;99.90;;;;;;5018441;28;20407;-58
2021/01/07 10:13:57;;;;;;;12.43;9.80;;;5.30;99.90;;;;;;5019047;28;20230;-57
2021/01/07 10:16:23;;;;;;;11.03;9.40;;;5.30;99.90;;;;;;5018608;28;20176;-58
2021/01/07 10:18:48;;;;;;;10.27;8.63;;;5.40;99.90;;;;;;5019259;28;20522;-58
2021/01/07 10:21:20;;;;;;;10.10;8.33;;;5.30;99.90;;;;;;5018913;28;20255;-58
2021/01/07 10:23:48;;;;;;;10.40;9.10;;;5.20;99.90;;;;;;5018746;28;20167;-57
2021/01/07 10:26:16;;;;;;;11.47;9.47;;;5.20;99.90;;;;;;5018965;28;20419;-58
2021/01/07 10:28:44;;;;;;;11.13;9.40;;;5.20;99.90;;;;;;5001618;28;20457;-58
2021/01/07 10:31:10;;;;;;;11.53;9.83;;;5.20;99.90;;;;;;5018235;28;20489;-58
2021/01/07 10:33:36;;;;;;;9.93;8.87;;;5.10;99.90;;;;;;5030733;28;20418;-57
2021/01/07 10:36:01;;;;;;;10.77;9.67;;;5.30;99.90;;;;;;5027694;28;20270;-59
2021/01/07 10:38:27;;;;;;;11.40;9.70;;;5.30;99.90;;;;;;5016323;28;20180;-59
2021/01/07 10:40:53;;;;;;;13.37;11.07;;;5.50;99.90;;;;;;5016282;28;20200;-57
2021/01/07 10:43:22;;;;;;;12.80;11.10;;;5.60;99.90;;;;;;5016834;28;20735;-59
2021/01/07 10:45:52;;;;;;;12.03;10.20;;;5.30;99.90;;;;;;5016672;28;20448;-57
2021/01/07 10:48:22;;;;;;;10.83;8.90;;;5.40;99.90;;;;;;5016529;28;20907;-57
2021/01/07 10:50:50;;;;;;;10.70;9.40;;;5.40;99.90;;;;;;5016470;28;20446;-59
2021/01/07 10:53:41;;;;;;;10.43;9.30;;;5.40;99.90;;;;;;5016741;28;20438;-59
2021/01/07 10:56:33;;;;;;;11.93;10.60;;;5.30;99.90;;;;;;5016731;28;20861;-59
2021/01/07 10:59:20;;;;;;;9.93;8.57;;;5.40;99.90;;;;;;5016992;28;20795;-58
2021/01/07 11:02:06;;;;;;;9.90;8.90;;;5.60;99.90;;;;;;5017416;28;20410;-60
2021/01/07 11:04:51;;;;;;;12.53;8.87;;;5.80;99.90;;;;;;5017312;28;20399;-60
2021/01/07 11:07:19;;;;;;;10.07;8.37;;;5.60;99.90;;;;;;5018497;28;20405;-59
2021/01/07 11:09:50;;;;;;;10.10;8.83;;;5.80;99.90;;;;;;5016097;28;20842;-57
2021/01/07 11:12:24;;;;;;;10.47;9.00;;;6.00;99.90;;;;;;5016684;28;20399;-59
2021/01/07 11:14:59;;;;;;;12.03;9.17;;;6.20;99.90;;;;;;5016791;28;20443;-58
2021/01/07 11:17:27;;;;;;;8.43;7.60;;;5.80;99.90;;;;;;5017027;28;20398;-60
2021/01/07 11:19:54;;;;;;;9.80;7.80;;;5.90;99.90;;;;;;5016252;28;20422;-57
2021/01/07 11:22:28;;;;;;;8.20;7.30;;;5.90;99.90;;;;;;5016163;28;20403;-59
2021/01/07 11:24:54;;;;;;;8.03;6.80;;;6.10;99.90;;;;;;5016000;28;20789;-59
2021/01/07 11:27:24;;;;;;;8.43;7.60;;;5.70;99.90;;;;;;5015998;28;20500;-58
2021/01/07 11:29:54;;;;;;;8.43;7.53;;;5.80;99.90;;;;;;5015752;28;20469;-57
2021/01/07 11:32:20;;;;;;;8.93;7.50;;;6.20;99.90;;;;;;5015752;28;20439;-59
2021/01/07 11:34:46;;;;;;;7.73;7.03;;;6.40;99.90;;;;;;5016511;28;20807;-57
2021/01/07 11:37:17;;;;;;;6.83;6.10;;;6.40;99.90;;;;;;5016329;28;20893;-57
2021/01/07 11:39:59;;;;;;;7.83;7.03;;;6.20;99.90;;;;;;5015259;28;20434;-60
2021/01/07 11:42:36;;;;;;;7.17;6.50;;;6.40;99.90;;;;;;5015950;28;20900;-60
2021/01/07 11:45:01;;;;;;;7.13;6.43;;;6.40;99.90;;;;;;5016297;28;20427;-60
2021/01/07 11:47:32;;;;;;;7.40;6.60;;;6.10;99.90;;;;;;5015627;28;20461;-59
2021/01/07 11:50:03;;;;;;;7.83;6.60;;;6.00;99.90;;;;;;5015660;28;20207;-59
2021/01/07 11:52:30;;;;;;;8.40;7.40;;;6.00;99.90;;;;;;5016039;28;20388;-59
2021/01/07 11:54:57;;;;;;;7.47;6.23;;;6.00;99.90;;;;;;5015087;28;20498;-59
2021/01/07 11:57:24;;;;;;;8.30;7.37;;;6.00;99.90;;;;;;5015702;28;20789;-58
2021/01/07 11:59:50;;;;;;;7.90;6.80;;;6.20;99.90;;;;;;5015435;28;20943;-59
2021/01/07 12:02:17;;;;;;;8.80;7.90;;;6.30;99.90;;;;;;5015926;28;20494;-59
2021/01/07 12:04:43;;;;;;;8.80;7.40;;;6.40;99.90;;;;;;5016147;28;20172;-59
2021/01/07 12:07:39;;;;;;;9.83;8.00;;;6.30;99.90;;;;;;5015434;28;20414;-59
2021/01/07 12:10:07;;;;;;;8.90;7.00;;;6.40;99.90;;;;;;5014752;28;20470;-58
2021/01/07 12:12:41;;;;;;;7.73;6.93;;;6.40;99.90;;;;;;5015558;28;20404;-58
2021/01/07 12:15:14;;;;;;;8.03;6.83;;;6.30;99.90;;;;;;5015583;28;20873;-59
2021/01/07 12:17:40;;;;;;;8.80;7.87;;;6.10;99.90;;;;;;5015633;28;20396;-58
2021/01/07 12:20:07;;;;;;;7.93;7.10;;;6.00;99.90;;;;;;5015728;28;20431;-59
2021/01/07 12:22:33;;;;;;;8.40;7.43;;;6.00;99.90;;;;;;5015293;28;20187;-59
2021/01/07 12:25:01;;;;;;;9.60;8.30;;;6.10;99.90;;;;;;5014703;28;20411;-60
2021/01/07 12:27:27;;;;;;;9.33;8.17;;;6.20;99.90;;;;;;5015150;28;20445;-59
2021/01/07 12:29:53;;;;;;;9.90;8.30;;;5.80;99.90;;;;;;5015423;28;20538;-59
2021/01/07 12:32:33;;;;;;;9.40;8.23;;;6.00;99.90;;;;;;5015528;28;20931;-59
2021/01/07 12:35:04;;;;;;;9.47;7.70;;;6.10;99.90;;;;;;5015405;28;20314;-58
2021/01/07 12:37:40;;;;;;;10.83;9.73;;;6.00;99.90;;;;;;5014880;28;20460;-58
2021/01/07 12:40:09;;;;;;;9.53;8.03;;;5.90;99.90;;;;;;5014165;28;20441;-59
2021/01/07 12:43:01;;;;;;;12.73;9.57;;;5.50;99.90;;;;;;5015548;28;20419;-59
2021/01/07 12:45:28;;;;;;;10.00;8.97;;;5.70;99.90;;;;;;5014702;28;20441;-59
2021/01/07 12:47:55;;;;;;;10.40;9.10;;;5.70;99.90;;;;;;5014819;28;20457;-59
2021/01/07 12:50:22;;;;;;;9.23;8.30;;;5.70;99.90;;;;;;5014681;28;20553;-60
2021/01/07 12:52:48;;;;;;;9.90;8.90;;;5.80;99.90;;;;;;5014661;28;20777;-59
2021/01/07 12:55:13;;;;;;;10.53;8.93;;;5.80;99.90;;;;;;5013507;28;20407;-59
2021/01/07 12:58:15;;;;;;;12.47;10.30;;;5.90;99.90;;;;;;5014716;28;20416;-57